createdAt,value
2023-05-21T00:00:21.271Z,77.76
2023-05-21T00:00:53.896Z,77.49
2023-05-21T00:01:25.862Z,77.68
2023-05-21T00:02:00.204Z,77.70
2023-05-21T00:02:32.207Z,77.92
2023-05-21T00:03:04.047Z,78.25
2023-05-21T00:03:36.533Z,78.05
2023-05-21T00:04:08.376Z,78.15
2023-05-21T00:04:40.756Z,78.19
2023-05-21T00:05:15.036Z,78.28
2023-05-21T00:05:47.903Z,78.47
2023-05-21T00:06:21.194Z,78.35
2023-05-21T00:06:52.963Z,78.48
2023-05-21T00:07:25.670Z,78.75
2023-05-21T00:07:57.370Z,78.46
2023-05-21T00:08:29.299Z,78.76
2023-05-21T00:09:01.001Z,78.78
2023-05-21T00:09:32.810Z,78.71
2023-05-21T00:10:04.856Z,78.69
2023-05-21T00:10:36.879Z,78.70
2023-05-21T00:11:09.438Z,78.95
2023-05-21T00:11:41.079Z,79.00
2023-05-21T00:12:12.946Z,79.09
2023-05-21T00:12:44.611Z,78.82
2023-05-21T00:13:16.429Z,78.90
2023-05-21T00:13:48.090Z,79.16
2023-05-21T00:14:19.793Z,79.26
2023-05-21T00:14:51.737Z,78.90
2023-05-21T00:15:23.500Z,78.99
2023-05-21T00:15:55.209Z,79.12
2023-05-21T00:16:27.012Z,79.10
2023-05-21T00:16:58.772Z,79.12
2023-05-21T00:17:30.431Z,79.42
2023-05-21T00:18:02.232Z,79.25
2023-05-21T00:18:34.428Z,79.09
2023-05-21T00:19:06.452Z,79.15
2023-05-21T00:19:39.967Z,79.29
2023-05-21T00:20:12.957Z,79.01
2023-05-21T00:20:45.802Z,79.08
2023-05-21T00:21:18.068Z,79.28
2023-05-21T00:21:49.789Z,79.44
2023-05-21T00:22:21.421Z,79.32
2023-05-21T00:22:53.593Z,79.45
2023-05-21T00:23:26.418Z,79.47
2023-05-21T00:23:59.008Z,79.49
2023-05-21T00:24:30.799Z,79.07
2023-05-21T00:25:02.915Z,78.80
2023-05-21T00:25:34.868Z,78.62
2023-05-21T00:26:06.803Z,78.84
2023-05-21T00:26:38.472Z,78.90
2023-05-21T00:27:10.244Z,79.12
2023-05-21T00:27:41.984Z,79.37
2023-05-21T00:28:13.773Z,79.17
2023-05-21T00:28:45.414Z,79.28
2023-05-21T00:29:17.058Z,79.34
2023-05-21T00:29:48.724Z,79.58
2023-05-21T00:30:20.549Z,79.51
2023-05-21T00:30:52.181Z,79.54
2023-05-21T00:31:24.583Z,79.66
2023-05-21T00:31:56.781Z,79.64
2023-05-21T00:32:28.492Z,79.77
2023-05-21T00:33:02.620Z,79.88
2023-05-21T00:33:34.445Z,79.80
2023-05-21T00:34:06.462Z,79.74
2023-05-21T00:34:38.390Z,79.87
2023-05-21T00:35:10.054Z,80.06
2023-05-21T00:35:41.884Z,80.02
2023-05-21T00:36:14.612Z,80.27
2023-05-21T00:36:46.722Z,80.24
2023-05-21T00:37:18.429Z,80.24
2023-05-21T00:37:50.346Z,80.47
2023-05-21T00:38:22.240Z,80.44
2023-05-21T00:38:53.919Z,80.28
2023-05-21T00:39:25.714Z,80.38
2023-05-21T00:39:58.388Z,80.41
2023-05-21T00:40:31.074Z,80.60
2023-05-21T00:41:03.289Z,80.56
2023-05-21T00:41:35.430Z,80.61
2023-05-21T00:42:07.270Z,80.70
2023-05-21T00:42:39.549Z,80.57
2023-05-21T00:43:11.352Z,80.55
2023-05-21T00:43:44.755Z,80.39
2023-05-21T00:44:18.354Z,80.47
2023-05-21T00:44:50.013Z,80.92
2023-05-21T00:45:24.168Z,80.78
2023-05-21T00:45:56.648Z,80.69
2023-05-21T00:46:31.375Z,80.72
2023-05-21T00:47:04.204Z,80.84
2023-05-21T00:47:36.289Z,81.18
2023-05-21T00:48:09.044Z,81.01
2023-05-21T00:48:40.872Z,80.94
2023-05-21T00:49:12.920Z,80.99
2023-05-21T00:49:45.163Z,81.07
2023-05-21T00:50:16.838Z,81.23
2023-05-21T00:50:49.830Z,81.50
2023-05-21T00:51:21.936Z,81.40
2023-05-21T00:51:55.028Z,81.49
2023-05-21T00:52:27.389Z,81.58
2023-05-21T00:52:59.907Z,81.55
2023-05-21T00:53:35.042Z,81.43
2023-05-21T00:54:06.818Z,81.50
2023-05-21T00:54:39.344Z,81.23
2023-05-21T00:55:11.223Z,81.79
2023-05-21T00:55:43.191Z,81.43
2023-05-21T00:56:15.082Z,81.23
2023-05-21T00:56:47.616Z,81.57
2023-05-21T00:57:22.993Z,81.54
2023-05-21T00:57:55.088Z,81.58
2023-05-21T00:58:27.348Z,81.43
2023-05-21T00:58:59.555Z,81.50
2023-05-21T00:59:32.939Z,81.48
2023-05-21T01:00:09.175Z,81.50
2023-05-21T01:00:40.962Z,81.69
2023-05-21T01:01:14.215Z,81.55
2023-05-21T01:01:46.116Z,81.58
2023-05-21T01:02:18.544Z,81.51
2023-05-21T01:02:50.786Z,81.62
2023-05-21T01:03:23.575Z,81.89
2023-05-21T01:03:58.071Z,81.89
2023-05-21T01:04:31.647Z,82.24
2023-05-21T01:05:07.301Z,82.01
2023-05-21T01:05:39.214Z,81.93
2023-05-21T01:06:14.139Z,81.79
2023-05-21T01:06:45.976Z,81.79
2023-05-21T01:07:18.806Z,82.23
2023-05-21T01:07:50.653Z,82.09
2023-05-21T01:08:22.814Z,81.88
2023-05-21T01:08:58.747Z,81.88
2023-05-21T01:09:30.585Z,81.86
2023-05-21T01:10:07.717Z,82.00
2023-05-21T01:10:39.546Z,82.15
2023-05-21T01:11:11.416Z,82.22
2023-05-21T01:11:51.343Z,82.51
2023-05-21T01:12:23.681Z,82.12
2023-05-21T01:12:57.581Z,82.23
2023-05-21T01:13:30.185Z,82.35
2023-05-21T01:14:02.866Z,82.49
2023-05-21T01:14:37.650Z,82.52
2023-05-21T01:15:10.856Z,82.56
2023-05-21T01:15:45.561Z,82.49
2023-05-21T01:16:18.000Z,82.48
2023-05-21T01:16:50.752Z,82.79
2023-05-21T01:17:24.460Z,82.43
2023-05-21T01:17:57.300Z,82.39
2023-05-21T01:18:29.967Z,82.91
2023-05-21T01:19:04.368Z,82.67
2023-05-21T01:19:36.902Z,82.73
2023-05-21T01:20:10.272Z,82.65
2023-05-21T01:20:48.218Z,82.63
2023-05-21T01:21:21.854Z,82.69
2023-05-21T01:21:58.011Z,82.56
2023-05-21T01:22:32.623Z,82.89
2023-05-21T01:23:05.593Z,82.92
2023-05-21T01:23:37.446Z,82.84
2023-05-21T01:24:09.127Z,82.77
2023-05-21T01:24:41.588Z,82.70
2023-05-21T01:25:13.291Z,82.90
2023-05-21T01:25:45.543Z,82.88
2023-05-21T01:26:18.616Z,83.00
2023-05-21T01:26:50.350Z,83.12
2023-05-21T01:27:22.825Z,83.16
2023-05-21T01:27:54.534Z,83.22
2023-05-21T01:28:26.309Z,83.22
2023-05-21T01:28:57.954Z,83.28
2023-05-21T01:29:29.600Z,83.38
2023-05-21T01:30:01.423Z,83.37
2023-05-21T01:30:33.796Z,83.11
2023-05-21T01:31:26.452Z,83.25
2023-05-21T01:32:31.505Z,83.38
2023-05-21T01:33:07.722Z,83.62
2023-05-21T01:33:49.045Z,83.43
2023-05-21T01:34:24.124Z,83.40
2023-05-21T01:35:05.480Z,83.25
2023-05-21T01:35:44.443Z,83.47
2023-05-21T01:36:24.348Z,83.03
2023-05-21T01:37:04.058Z,82.93
2023-05-21T01:37:46.317Z,83.14
2023-05-21T01:38:24.972Z,83.18
2023-05-21T01:39:07.828Z,83.21
2023-05-21T01:39:44.137Z,83.37
2023-05-21T01:40:31.840Z,83.42
2023-05-21T01:41:08.429Z,83.18
2023-05-21T01:41:45.053Z,82.94
2023-05-21T01:42:18.485Z,83.06
2023-05-21T01:42:50.597Z,83.23
2023-05-21T01:43:23.575Z,83.29
2023-05-21T01:43:56.942Z,83.01
2023-05-21T01:44:29.226Z,83.09
2023-05-21T01:45:06.245Z,83.12
2023-05-21T01:45:40.871Z,83.53
2023-05-21T01:46:17.268Z,83.09
2023-05-21T01:46:49.901Z,83.11
2023-05-21T01:47:24.463Z,83.43
2023-05-21T01:47:56.660Z,83.28
2023-05-21T01:48:29.936Z,83.01
2023-05-21T01:49:02.082Z,83.11
2023-05-21T01:49:34.181Z,83.02
2023-05-21T01:50:06.816Z,83.19
2023-05-21T01:50:40.598Z,82.92
2023-05-21T01:51:13.163Z,82.87
2023-05-21T01:51:45.405Z,82.90
2023-05-21T01:52:17.693Z,83.02
2023-05-21T01:52:51.941Z,83.02
2023-05-21T01:53:24.035Z,82.88
2023-05-21T01:53:55.820Z,82.99
2023-05-21T01:54:27.510Z,82.72
2023-05-21T01:55:00.442Z,82.82
2023-05-21T01:55:33.406Z,82.82
2023-05-21T01:56:05.958Z,82.78
2023-05-21T01:56:37.664Z,82.53
2023-05-21T01:57:09.421Z,82.88
2023-05-21T01:57:41.201Z,82.80
2023-05-21T01:58:13.229Z,82.69
2023-05-21T01:58:44.887Z,83.18
2023-05-21T01:59:17.396Z,83.05
2023-05-21T01:59:49.121Z,82.85
2023-05-21T02:00:22.509Z,82.62
2023-05-21T02:00:54.717Z,82.66
2023-05-21T02:01:30.283Z,82.58
2023-05-21T02:02:02.321Z,82.77
2023-05-21T02:02:34.059Z,82.70
2023-05-21T02:03:06.287Z,82.66
2023-05-21T02:03:38.707Z,83.04
2023-05-21T02:04:10.589Z,82.81
2023-05-21T02:04:42.418Z,82.78
2023-05-21T02:05:14.321Z,82.61
2023-05-21T02:05:47.204Z,82.81
2023-05-21T02:06:19.045Z,82.73
2023-05-21T02:06:50.700Z,82.81
2023-05-21T02:07:23.246Z,82.77
2023-05-21T02:07:55.068Z,82.92
2023-05-21T02:08:28.149Z,83.20
2023-05-21T02:08:59.812Z,82.81
2023-05-21T02:09:31.474Z,82.91
2023-05-21T02:10:03.797Z,83.33
2023-05-21T02:10:36.535Z,83.10
2023-05-21T02:11:08.224Z,83.28
2023-05-21T02:11:39.967Z,82.91
2023-05-21T02:12:11.708Z,82.90
2023-05-21T02:12:43.358Z,83.12
2023-05-21T02:13:15.140Z,83.32
2023-05-21T02:13:46.797Z,82.90
2023-05-21T02:14:18.429Z,82.83
2023-05-21T02:14:50.507Z,82.84
2023-05-21T02:15:22.602Z,82.86
2023-05-21T02:15:55.089Z,82.91
2023-05-21T02:16:26.969Z,82.92
2023-05-21T02:16:58.778Z,83.10
2023-05-21T02:17:33.980Z,83.27
2023-05-21T02:18:06.071Z,83.13
2023-05-21T02:18:38.572Z,83.20
2023-05-21T02:19:11.302Z,83.26
2023-05-21T02:19:45.007Z,82.96
2023-05-21T02:20:17.448Z,83.04
2023-05-21T02:20:49.178Z,82.91
2023-05-21T02:21:20.894Z,82.98
2023-05-21T02:21:52.651Z,82.63
2023-05-21T02:22:24.307Z,82.64
2023-05-21T02:22:56.061Z,82.76
2023-05-21T02:23:27.682Z,82.94
2023-05-21T02:23:59.384Z,83.25
2023-05-21T02:24:31.540Z,83.05
2023-05-21T02:25:03.488Z,82.76
2023-05-21T02:25:35.552Z,82.78
2023-05-21T02:26:07.481Z,83.00
2023-05-21T02:26:39.096Z,83.03
2023-05-21T02:27:10.870Z,82.95
2023-05-21T02:27:43.644Z,82.94
2023-05-21T02:28:16.071Z,83.24
2023-05-21T02:28:48.201Z,83.47
2023-05-21T02:29:19.959Z,83.07
2023-05-21T02:29:51.566Z,82.93
2023-05-21T02:30:23.363Z,83.43
2023-05-21T02:30:55.093Z,82.94
2023-05-21T02:31:26.768Z,82.79
2023-05-21T02:31:58.553Z,82.72
2023-05-21T02:32:32.067Z,82.93
2023-05-21T02:33:04.009Z,83.27
2023-05-21T02:33:35.883Z,83.12
2023-05-21T02:34:08.899Z,83.00
2023-05-21T02:34:42.988Z,82.94
2023-05-21T02:35:14.738Z,82.87
2023-05-21T02:35:46.397Z,82.92
2023-05-21T02:36:19.061Z,83.00
2023-05-21T02:36:54.812Z,83.03
2023-05-21T02:37:27.791Z,82.89
2023-05-21T02:38:03.234Z,83.09
2023-05-21T02:38:35.159Z,83.01
2023-05-21T02:39:06.816Z,83.14
2023-05-21T02:39:38.428Z,83.04
2023-05-21T02:40:10.775Z,82.97
2023-05-21T02:40:42.583Z,83.08
2023-05-21T02:41:14.601Z,83.13
2023-05-21T02:41:47.182Z,83.16
2023-05-21T02:42:18.998Z,83.13
2023-05-21T02:42:50.772Z,83.38
2023-05-21T02:43:22.631Z,83.19
2023-05-21T02:43:54.300Z,83.24
2023-05-21T02:44:26.035Z,83.55
2023-05-21T02:44:57.810Z,83.31
2023-05-21T02:45:30.028Z,83.80
2023-05-21T02:46:01.871Z,83.55
2023-05-21T02:46:33.705Z,83.36
2023-05-21T02:47:07.029Z,82.93
2023-05-21T02:47:39.171Z,83.18
2023-05-21T02:48:11.625Z,83.21
2023-05-21T02:48:43.373Z,83.03
2023-05-21T02:49:15.273Z,83.02
2023-05-21T02:49:47.060Z,83.56
2023-05-21T02:50:18.994Z,83.36
2023-05-21T02:50:50.769Z,83.55
2023-05-21T02:51:22.571Z,83.38
2023-05-21T02:51:54.188Z,83.11
2023-05-21T02:52:25.921Z,82.92
2023-05-21T02:52:59.813Z,82.94
2023-05-21T02:53:31.520Z,82.85
2023-05-21T02:54:04.135Z,82.88
2023-05-21T02:54:35.941Z,82.84
2023-05-21T02:55:08.211Z,83.06
2023-05-21T02:55:39.977Z,83.05
2023-05-21T02:56:12.620Z,82.98
2023-05-21T02:56:44.320Z,83.03
2023-05-21T02:57:15.957Z,82.87
2023-05-21T02:57:48.067Z,82.81
2023-05-21T02:58:19.925Z,83.27
2023-05-21T02:58:52.160Z,83.01
2023-05-21T02:59:24.270Z,83.06
2023-05-21T02:59:56.158Z,83.47
2023-05-21T03:00:27.815Z,83.35
2023-05-21T03:00:59.522Z,83.28
2023-05-21T03:01:31.214Z,83.41
2023-05-21T03:02:02.906Z,83.28
2023-05-21T03:02:34.702Z,83.16
2023-05-21T03:03:06.576Z,82.92
2023-05-21T03:03:38.527Z,82.87
2023-05-21T03:04:10.303Z,82.71
2023-05-21T03:04:46.233Z,82.88
2023-05-21T03:05:18.404Z,82.86
2023-05-21T03:05:50.558Z,83.20
2023-05-21T03:06:22.591Z,83.09
2023-05-21T03:06:55.535Z,83.10
2023-05-21T03:07:27.354Z,83.22
2023-05-21T03:07:59.042Z,83.30
2023-05-21T03:08:31.984Z,83.41
2023-05-21T03:09:05.809Z,83.17
2023-05-21T03:09:37.473Z,83.12
2023-05-21T03:10:09.497Z,82.88
2023-05-21T03:10:41.312Z,82.66
2023-05-21T03:11:13.037Z,83.02
2023-05-21T03:11:44.676Z,83.46
2023-05-21T03:12:16.356Z,82.86
2023-05-21T03:12:48.022Z,82.81
2023-05-21T03:13:19.803Z,82.75
2023-05-21T03:13:51.660Z,82.58
2023-05-21T03:14:25.806Z,82.69
2023-05-21T03:14:57.546Z,83.04
2023-05-21T03:15:33.345Z,82.52
2023-05-21T03:16:05.457Z,82.60
2023-05-21T03:16:38.120Z,82.51
2023-05-21T03:17:14.118Z,82.35
2023-05-21T03:17:46.059Z,82.28
2023-05-21T03:18:18.104Z,82.32
2023-05-21T03:18:49.820Z,82.14
2023-05-21T03:19:21.573Z,82.20
2023-05-21T03:19:54.846Z,82.34
2023-05-21T03:20:28.121Z,82.52
2023-05-21T03:20:59.949Z,82.76
2023-05-21T03:21:32.426Z,82.96
2023-05-21T03:22:04.768Z,82.55
2023-05-21T03:22:37.669Z,82.65
2023-05-21T03:23:09.857Z,83.14
2023-05-21T03:23:42.686Z,82.94
2023-05-21T03:24:15.360Z,82.65
2023-05-21T03:24:47.183Z,82.78
2023-05-21T03:25:18.838Z,82.63
2023-05-21T03:25:51.108Z,82.53
2023-05-21T03:26:24.203Z,82.36
2023-05-21T03:26:56.763Z,82.21
2023-05-21T03:27:28.481Z,82.35
2023-05-21T03:28:00.191Z,82.44
2023-05-21T03:28:32.053Z,82.55
2023-05-21T03:29:03.732Z,82.46
2023-05-21T03:29:36.267Z,82.09
2023-05-21T03:30:08.433Z,82.07
2023-05-21T03:30:40.098Z,82.57
2023-05-21T03:31:11.739Z,81.99
2023-05-21T03:31:43.420Z,82.07
2023-05-21T03:32:15.526Z,81.91
2023-05-21T03:32:47.943Z,81.93
2023-05-21T03:33:19.966Z,81.96
2023-05-21T03:33:52.702Z,81.90
2023-05-21T03:34:24.681Z,82.11
2023-05-21T03:34:56.385Z,82.27
2023-05-21T03:35:28.025Z,81.88
2023-05-21T03:35:59.674Z,81.69
2023-05-21T03:36:31.581Z,82.00
2023-05-21T03:37:03.281Z,81.65
2023-05-21T03:37:35.118Z,81.43
2023-05-21T03:38:06.777Z,81.99
2023-05-21T03:38:38.423Z,81.66
2023-05-21T03:39:10.061Z,81.85
2023-05-21T03:39:41.847Z,81.88
2023-05-21T03:40:13.996Z,82.00
2023-05-21T03:40:45.686Z,82.04
2023-05-21T03:41:17.374Z,81.96
2023-05-21T03:41:49.053Z,81.97
2023-05-21T03:42:20.802Z,81.79
2023-05-21T03:42:52.486Z,81.45
2023-05-21T03:43:24.102Z,81.71
2023-05-21T03:43:56.149Z,82.35
2023-05-21T03:44:28.254Z,82.20
2023-05-21T03:44:59.967Z,82.13
2023-05-21T03:45:31.581Z,81.98
2023-05-21T03:46:03.293Z,82.01
2023-05-21T03:46:35.026Z,81.68
2023-05-21T03:47:06.705Z,81.56
2023-05-21T03:47:38.415Z,81.44
2023-05-21T03:48:10.468Z,81.45
2023-05-21T03:48:42.299Z,81.14
2023-05-21T03:49:14.750Z,81.42
2023-05-21T03:49:46.412Z,81.57
2023-05-21T03:50:18.183Z,81.17
2023-05-21T03:50:49.915Z,81.20
2023-05-21T03:51:21.648Z,81.26
2023-05-21T03:51:53.303Z,81.12
2023-05-21T03:52:24.995Z,80.95
2023-05-21T03:52:56.715Z,81.45
2023-05-21T03:53:28.382Z,81.24
2023-05-21T03:54:00.309Z,81.06
2023-05-21T03:54:32.071Z,80.96
2023-05-21T03:55:04.040Z,80.85
2023-05-21T03:55:36.604Z,81.11
2023-05-21T03:56:08.630Z,81.10
2023-05-21T03:56:40.324Z,80.96
2023-05-21T03:57:11.994Z,80.91
2023-05-21T03:57:43.654Z,80.86
2023-05-21T03:58:15.310Z,80.79
2023-05-21T03:58:47.326Z,80.61
2023-05-21T03:59:19.006Z,80.48
2023-05-21T03:59:51.136Z,80.49
2023-05-21T04:00:22.779Z,80.40
2023-05-21T04:00:54.747Z,80.88
2023-05-21T04:01:28.549Z,80.57
2023-05-21T04:02:00.413Z,80.43
2023-05-21T04:03:04.846Z,80.45
2023-05-21T04:03:40.007Z,80.58
2023-05-21T04:04:12.674Z,80.72
2023-05-21T04:04:45.724Z,80.86
2023-05-21T04:05:17.472Z,80.74
2023-05-21T04:05:49.585Z,81.12
2023-05-21T04:06:21.732Z,80.73
2023-05-21T04:06:54.395Z,80.72
2023-05-21T04:07:27.204Z,80.85
2023-05-21T04:08:00.268Z,80.68
2023-05-21T04:08:31.954Z,80.78
2023-05-21T04:09:04.670Z,80.59
2023-05-21T04:09:36.915Z,80.74
2023-05-21T04:10:09.279Z,81.18
2023-05-21T04:10:40.930Z,80.69
2023-05-21T04:11:12.588Z,80.54
2023-05-21T04:11:44.252Z,80.56
2023-05-21T04:12:18.072Z,80.40
2023-05-21T04:12:52.571Z,80.43
2023-05-21T04:13:24.354Z,80.90
2023-05-21T04:13:56.058Z,80.63
2023-05-21T04:14:28.085Z,80.49
2023-05-21T04:14:59.715Z,80.43
2023-05-21T04:15:31.556Z,80.90
2023-05-21T04:16:03.427Z,80.85
2023-05-21T04:16:35.519Z,80.74
2023-05-21T04:17:07.431Z,80.75
2023-05-21T04:17:40.086Z,80.69
2023-05-21T04:18:13.673Z,81.05
2023-05-21T04:18:48.414Z,80.90
2023-05-21T04:19:20.379Z,80.53
2023-05-21T04:19:52.424Z,80.51
2023-05-21T04:20:24.203Z,80.37
2023-05-21T04:20:55.936Z,80.27
2023-05-21T04:21:27.600Z,80.32
2023-05-21T04:21:59.369Z,80.61
2023-05-21T04:22:31.018Z,80.36
2023-05-21T04:23:03.595Z,79.96
2023-05-21T04:23:36.850Z,80.17
2023-05-21T04:24:08.516Z,79.90
2023-05-21T04:24:40.317Z,79.66
2023-05-21T04:25:12.292Z,79.96
2023-05-21T04:25:43.946Z,80.10
2023-05-21T04:26:16.349Z,79.85
2023-05-21T04:26:48.227Z,80.91
2023-05-21T04:27:23.697Z,80.38
2023-05-21T04:27:55.371Z,80.17
2023-05-21T04:28:28.891Z,79.99
2023-05-21T04:29:04.163Z,80.10
2023-05-21T04:29:37.752Z,80.15
2023-05-21T04:30:09.883Z,80.07
2023-05-21T04:30:41.541Z,80.09
2023-05-21T04:31:13.942Z,80.47
2023-05-21T04:31:45.829Z,80.54
2023-05-21T04:32:18.498Z,80.56
2023-05-21T04:32:50.329Z,80.65
2023-05-21T04:33:23.107Z,80.29
2023-05-21T04:33:54.753Z,80.70
2023-05-21T04:34:26.422Z,80.50
2023-05-21T04:34:58.070Z,80.34
2023-05-21T04:35:29.838Z,80.45
2023-05-21T04:36:02.048Z,80.75
2023-05-21T04:36:33.948Z,79.88
2023-05-21T04:37:05.630Z,79.53
2023-05-21T04:37:37.276Z,79.72
2023-05-21T04:38:08.966Z,79.68
2023-05-21T04:38:42.076Z,79.43
2023-05-21T04:39:14.653Z,79.69
2023-05-21T04:39:47.074Z,79.43
2023-05-21T04:40:24.328Z,79.24
2023-05-21T04:40:58.843Z,79.22
2023-05-21T04:41:30.808Z,79.34
2023-05-21T04:42:03.382Z,79.46
2023-05-21T04:42:35.921Z,79.50
2023-05-21T04:43:08.284Z,79.43
2023-05-21T04:43:44.041Z,79.09
2023-05-21T04:44:15.750Z,78.92
2023-05-21T04:44:48.799Z,79.21
2023-05-21T04:45:21.300Z,79.78
2023-05-21T04:45:56.260Z,79.57
2023-05-21T04:46:28.099Z,78.79
2023-05-21T04:47:00.742Z,79.20
2023-05-21T04:47:35.873Z,78.99
2023-05-21T04:48:07.831Z,79.28
2023-05-21T04:48:41.149Z,79.21
2023-05-21T04:49:12.814Z,79.00
2023-05-21T04:49:45.102Z,79.48
2023-05-21T04:50:17.603Z,79.04
2023-05-21T04:50:49.561Z,78.33
2023-05-21T04:51:22.888Z,78.30
2023-05-21T04:51:55.166Z,78.17
2023-05-21T04:52:26.896Z,78.75
2023-05-21T04:52:58.974Z,78.41
2023-05-21T04:53:31.108Z,78.45
2023-05-21T04:54:03.578Z,79.00
2023-05-21T04:54:36.587Z,78.68
2023-05-21T04:55:09.241Z,79.11
2023-05-21T04:55:42.075Z,79.14
2023-05-21T04:56:14.018Z,78.75
2023-05-21T04:56:47.587Z,78.80
2023-05-21T04:57:19.261Z,78.93
2023-05-21T04:57:51.379Z,79.23
2023-05-21T04:58:23.040Z,78.71
2023-05-21T04:58:54.737Z,78.30
2023-05-21T04:59:26.512Z,78.77
2023-05-21T04:59:58.145Z,78.21
2023-05-21T05:00:29.879Z,78.03
2023-05-21T05:01:03.655Z,77.65
2023-05-21T05:01:38.623Z,77.64
2023-05-21T05:02:10.441Z,77.78
2023-05-21T05:02:42.173Z,77.60
2023-05-21T05:03:14.078Z,77.38
2023-05-21T05:03:46.203Z,77.45
2023-05-21T05:04:17.910Z,77.45
2023-05-21T05:04:49.551Z,77.09
2023-05-21T05:05:21.286Z,76.94
2023-05-21T05:05:52.895Z,77.63
2023-05-21T05:06:26.020Z,77.86
2023-05-21T05:06:57.725Z,76.91
2023-05-21T05:07:29.564Z,76.51
2023-05-21T05:08:01.429Z,76.52
2023-05-21T05:08:33.229Z,76.32
2023-05-21T05:09:04.906Z,76.50
2023-05-21T05:09:36.562Z,76.22
2023-05-21T05:10:08.601Z,76.22
2023-05-21T05:10:40.241Z,76.86
2023-05-21T05:11:12.882Z,76.94
2023-05-21T05:11:45.011Z,76.30
2023-05-21T05:12:16.692Z,76.20
2023-05-21T05:12:49.009Z,76.33
2023-05-21T05:13:20.924Z,76.36
2023-05-21T05:13:52.797Z,76.55
2023-05-21T05:14:24.435Z,76.34
2023-05-21T05:14:56.200Z,76.15
2023-05-21T05:15:27.874Z,76.74
2023-05-21T05:16:00.498Z,76.56
2023-05-21T05:16:32.390Z,77.38
2023-05-21T05:17:04.576Z,76.87
2023-05-21T05:17:36.373Z,75.79
2023-05-21T05:18:08.834Z,75.99
2023-05-21T05:18:40.697Z,75.84
2023-05-21T05:19:12.373Z,75.79
2023-05-21T05:19:44.184Z,76.02
2023-05-21T05:20:16.331Z,76.07
2023-05-21T05:20:48.094Z,76.04
2023-05-21T05:21:22.365Z,75.40
2023-05-21T05:21:54.428Z,75.88
2023-05-21T05:22:26.235Z,76.50
2023-05-21T05:22:57.845Z,76.21
2023-05-21T05:23:29.583Z,75.94
2023-05-21T05:24:01.374Z,75.69
2023-05-21T05:24:33.057Z,75.84
2023-05-21T05:25:05.443Z,75.94
2023-05-21T05:25:37.235Z,75.83
2023-05-21T05:26:09.077Z,75.35
2023-05-21T05:26:40.717Z,75.63
2023-05-21T05:27:12.418Z,75.56
2023-05-21T05:27:44.159Z,75.59
2023-05-21T05:28:15.839Z,75.68
2023-05-21T05:28:47.620Z,76.46
2023-05-21T05:29:19.356Z,76.39
2023-05-21T05:29:51.103Z,76.13
2023-05-21T05:30:22.758Z,76.52
2023-05-21T05:30:54.601Z,76.53
2023-05-21T05:31:26.387Z,76.53
2023-05-21T05:31:58.095Z,76.94
2023-05-21T05:32:29.920Z,75.73
2023-05-21T05:33:01.788Z,76.49
2023-05-21T05:33:33.549Z,76.03
2023-05-21T05:34:05.310Z,76.57
2023-05-21T05:34:38.037Z,75.60
2023-05-21T05:35:10.159Z,75.43
2023-05-21T05:35:42.038Z,75.27
2023-05-21T05:36:13.708Z,75.33
2023-05-21T05:36:45.519Z,76.23
2023-05-21T05:37:17.351Z,75.97
2023-05-21T05:37:49.010Z,75.80
2023-05-21T05:38:20.888Z,75.13
2023-05-21T05:38:52.668Z,75.34
2023-05-21T05:39:24.366Z,74.82
2023-05-21T05:39:56.058Z,74.98
2023-05-21T05:40:27.814Z,74.95
2023-05-21T05:40:59.806Z,75.09
2023-05-21T05:41:31.499Z,75.72
2023-05-21T05:42:03.900Z,75.40
2023-05-21T05:42:35.785Z,75.44
2023-05-21T05:43:07.440Z,75.43
2023-05-21T05:43:39.061Z,76.00
2023-05-21T05:44:11.048Z,75.91
2023-05-21T05:44:42.738Z,76.06
2023-05-21T05:45:14.435Z,75.73
2023-05-21T05:45:46.329Z,75.18
2023-05-21T05:46:18.052Z,75.45
2023-05-21T05:46:49.693Z,75.93
2023-05-21T05:47:21.902Z,74.78
2023-05-21T05:47:53.602Z,74.50
2023-05-21T05:48:25.374Z,74.40
2023-05-21T05:48:57.090Z,74.25
2023-05-21T05:49:28.725Z,74.25
2023-05-21T05:50:00.414Z,74.15
2023-05-21T05:50:32.229Z,74.79
2023-05-21T05:51:03.989Z,74.59
2023-05-21T05:51:36.290Z,74.36
2023-05-21T05:52:07.946Z,74.72
2023-05-21T05:52:39.560Z,74.34
2023-05-21T05:53:13.288Z,74.22
2023-05-21T05:53:45.105Z,74.01
2023-05-21T05:54:16.937Z,74.27
2023-05-21T05:54:48.613Z,73.98
2023-05-21T05:55:22.085Z,73.44
2023-05-21T05:55:53.837Z,73.57
2023-05-21T05:56:27.114Z,73.98
2023-05-21T05:56:58.789Z,74.36
2023-05-21T05:57:30.459Z,73.66
2023-05-21T05:58:02.246Z,73.60
2023-05-21T05:58:33.997Z,73.50
2023-05-21T05:59:05.715Z,73.30
2023-05-21T05:59:37.335Z,74.42
2023-05-21T06:00:10.652Z,73.81
2023-05-21T06:00:42.503Z,73.26
2023-05-21T06:01:14.247Z,73.17
2023-05-21T06:01:46.054Z,73.05
2023-05-21T06:02:18.079Z,73.01
2023-05-21T06:02:49.988Z,73.16
2023-05-21T06:03:21.763Z,72.98
2023-05-21T06:03:53.525Z,73.33
2023-05-21T06:04:25.393Z,72.83
2023-05-21T06:04:58.574Z,73.08
2023-05-21T06:05:30.240Z,72.50
2023-05-21T06:06:02.062Z,71.95
2023-05-21T06:06:34.887Z,71.80
2023-05-21T06:07:06.641Z,72.10
2023-05-21T06:07:40.981Z,72.50
2023-05-21T06:08:12.637Z,71.94
2023-05-21T06:08:44.391Z,71.96
2023-05-21T06:09:16.030Z,71.84
2023-05-21T06:09:47.760Z,71.52
2023-05-21T06:10:20.839Z,71.89
2023-05-21T06:10:52.595Z,71.88
2023-05-21T06:11:24.299Z,72.29
2023-05-21T06:11:56.233Z,71.58
2023-05-21T06:12:27.937Z,71.98
2023-05-21T06:12:59.554Z,71.40
2023-05-21T06:13:32.132Z,72.04
2023-05-21T06:14:03.837Z,71.96
2023-05-21T06:14:35.725Z,71.64
2023-05-21T06:15:07.990Z,71.36
2023-05-21T06:15:43.189Z,70.75
2023-05-21T06:16:15.763Z,70.82
2023-05-21T06:16:47.467Z,70.32
2023-05-21T06:17:19.100Z,70.82
2023-05-21T06:17:50.924Z,71.09
2023-05-21T06:18:22.613Z,70.16
2023-05-21T06:18:54.274Z,69.98
2023-05-21T06:19:26.219Z,70.04
2023-05-21T06:19:58.116Z,70.16
2023-05-21T06:20:30.102Z,69.71
2023-05-21T06:21:01.787Z,69.59
2023-05-21T06:21:33.432Z,70.30
2023-05-21T06:22:05.346Z,70.05
2023-05-21T06:22:37.060Z,70.87
2023-05-21T06:23:09.039Z,70.10
2023-05-21T06:23:40.877Z,70.03
2023-05-21T06:24:12.504Z,69.87
2023-05-21T06:24:44.176Z,69.78
2023-05-21T06:25:16.285Z,69.50
2023-05-21T06:25:47.950Z,69.77
2023-05-21T06:26:19.907Z,69.24
2023-05-21T06:26:51.976Z,69.34
2023-05-21T06:27:23.697Z,69.32
2023-05-21T06:27:56.985Z,69.25
2023-05-21T06:28:28.679Z,69.55
2023-05-21T06:29:00.571Z,69.15
2023-05-21T06:29:32.224Z,69.04
2023-05-21T06:30:04.662Z,69.19
2023-05-21T06:30:36.318Z,69.12
2023-05-21T06:31:08.378Z,69.70
2023-05-21T06:31:40.040Z,69.71
2023-05-21T06:32:11.768Z,69.76
2023-05-21T06:32:43.762Z,70.18
2023-05-21T06:33:15.639Z,69.99
2023-05-21T06:33:49.558Z,70.15
2023-05-21T06:34:21.242Z,70.91
2023-05-21T06:34:52.847Z,70.47
2023-05-21T06:35:24.610Z,71.20
2023-05-21T06:35:56.334Z,70.10
2023-05-21T06:36:30.254Z,70.39
2023-05-21T06:37:02.158Z,70.28
2023-05-21T06:37:33.866Z,70.69
2023-05-21T06:38:05.666Z,70.04
2023-05-21T06:38:37.304Z,69.29
2023-05-21T06:39:08.975Z,68.80
2023-05-21T06:39:40.818Z,69.59
2023-05-21T06:40:12.640Z,68.58
2023-05-21T06:40:47.431Z,68.44
2023-05-21T06:41:19.090Z,68.46
2023-05-21T06:41:50.834Z,68.64
2023-05-21T06:42:22.571Z,68.92
2023-05-21T06:42:56.216Z,68.65
2023-05-21T06:43:28.866Z,67.64
2023-05-21T06:44:00.615Z,67.55
2023-05-21T06:44:32.290Z,67.66
2023-05-21T06:45:04.307Z,67.95
2023-05-21T06:45:36.235Z,67.80
2023-05-21T06:46:08.187Z,67.56
2023-05-21T06:46:40.151Z,67.04
2023-05-21T06:47:11.801Z,67.03
2023-05-21T06:47:43.480Z,68.10
2023-05-21T06:48:17.027Z,67.81
2023-05-21T06:48:48.676Z,67.72
2023-05-21T06:49:20.310Z,67.96
2023-05-21T06:49:51.992Z,67.87
2023-05-21T06:50:24.098Z,68.10
2023-05-21T06:50:55.745Z,68.50
2023-05-21T06:51:27.455Z,68.40
2023-05-21T06:51:59.097Z,68.38
2023-05-21T06:52:31.900Z,68.59
2023-05-21T06:53:03.951Z,68.26
2023-05-21T06:53:35.643Z,68.25
2023-05-21T06:54:07.376Z,68.57
2023-05-21T06:54:39.051Z,69.07
2023-05-21T06:55:10.909Z,68.46
2023-05-21T06:55:45.463Z,68.41
2023-05-21T06:56:17.108Z,68.40
2023-05-21T06:56:48.957Z,68.47
2023-05-21T06:57:21.005Z,68.48
2023-05-21T06:57:52.799Z,67.81
2023-05-21T06:58:24.529Z,67.75
2023-05-21T06:58:56.561Z,68.08